createdAt,value
2019-01-21T00:01:07.923Z,61.30
2019-01-21T00:05:13.619Z,67.80
2019-01-21T00:09:19.330Z,62.80
2019-01-21T00:13:25.119Z,61.40
2019-01-21T00:17:30.828Z,63.50
2019-01-21T00:21:36.528Z,64.80
2019-01-21T00:25:42.206Z,66.80
2019-01-21T00:29:47.889Z,63.70
2019-01-21T00:33:53.583Z,64.00
2019-01-21T00:37:59.256Z,64.70
2019-01-21T00:42:05.244Z,67.70
2019-01-21T00:46:11.908Z,67.40
2019-01-21T00:50:17.705Z,66.20
2019-01-21T00:54:23.398Z,63.90
2019-01-21T00:58:29.086Z,63.00
2019-01-21T01:02:34.885Z,63.90
2019-01-21T01:06:40.531Z,71.00
2019-01-21T01:10:46.224Z,61.80
2019-01-21T01:14:51.922Z,60.70
2019-01-21T01:18:57.601Z,67.20
2019-01-21T01:23:03.360Z,63.80
2019-01-21T01:27:09.187Z,68.90
2019-01-21T01:31:14.978Z,66.00
2019-01-21T01:35:20.699Z,61.70
2019-01-21T01:39:26.364Z,68.10
2019-01-21T01:43:32.052Z,66.50
2019-01-21T01:47:44.517Z,64.60
2019-01-21T01:51:45.142Z,64.10
2019-01-21T01:55:50.895Z,64.50
2019-01-21T01:59:56.725Z,63.20
2019-01-21T02:04:02.479Z,64.20
2019-01-21T02:08:08.243Z,63.80
2019-01-21T02:12:14.013Z,69.60
2019-01-21T02:16:19.775Z,67.00
2019-01-21T02:20:25.474Z,65.80
2019-01-21T02:24:34.536Z,66.60
2019-01-21T02:29:01.852Z,66.60
2019-01-21T02:33:37.425Z,66.70
2019-01-21T02:38:08.662Z,69.00
2019-01-21T02:42:30.154Z,68.00
2019-01-21T02:47:01.281Z,66.30
2019-01-21T02:51:41.611Z,71.40
2019-01-21T02:56:14.245Z,66.30
2019-01-21T03:00:33.249Z,74.80
2019-01-21T03:05:26.755Z,69.30
2019-01-21T03:09:39.976Z,69.50
2019-01-21T03:13:52.763Z,70.90
2019-01-21T03:18:29.962Z,66.20
2019-01-21T03:23:14.334Z,70.80
2019-01-21T03:27:33.000Z,71.20
2019-01-21T03:32:13.178Z,69.70
2019-01-21T03:36:46.893Z,74.30
2019-01-21T03:40:57.160Z,72.30
2019-01-21T03:45:22.447Z,69.90
2019-01-21T03:50:08.701Z,68.50
2019-01-21T03:54:21.793Z,69.80
2019-01-21T03:58:37.570Z,73.40
2019-01-21T04:02:53.375Z,74.50
2019-01-21T04:07:03.661Z,67.30
2019-01-21T04:11:34.637Z,66.30
2019-01-21T04:15:44.919Z,65.70
2019-01-21T04:20:17.217Z,60.90
2019-01-21T04:25:00.316Z,62.10
2019-01-21T04:29:45.108Z,75.60
2019-01-21T04:34:03.804Z,64.70
2019-01-21T04:38:37.462Z,71.00
2019-01-21T04:42:59.141Z,67.70
2019-01-21T04:47:34.673Z,70.60
2019-01-21T04:52:02.541Z,72.20
2019-01-21T04:56:37.795Z,70.60
2019-01-21T05:01:06.900Z,71.40
2019-01-21T05:05:28.781Z,66.60
2019-01-21T05:10:03.638Z,67.40
2019-01-21T05:14:43.909Z,74.70
2019-01-21T05:19:14.550Z,71.00
2019-01-21T05:23:57.676Z,75.00
2019-01-21T05:28:31.533Z,74.00
2019-01-21T05:33:19.020Z,75.30
2019-01-21T05:37:35.036Z,70.10
2019-01-21T05:42:18.018Z,62.60
2019-01-21T05:46:46.302Z,69.80
2019-01-21T05:51:11.442Z,72.50
2019-01-21T05:55:56.113Z,78.20
2019-01-21T06:00:18.200Z,76.50
2019-01-21T06:04:49.328Z,71.50
2019-01-21T06:09:23.317Z,68.50
2019-01-21T06:14:04.904Z,69.70
2019-01-21T06:18:39.174Z,71.00
2019-01-21T06:23:17.882Z,71.70
2019-01-21T06:27:30.850Z,72.10
2019-01-21T06:31:49.858Z,75.00
2019-01-21T06:36:08.581Z,74.90
2019-01-21T06:40:42.450Z,79.30
2019-01-21T06:45:04.234Z,77.00
2019-01-21T06:49:39.822Z,69.90
2019-01-21T06:54:09.411Z,77.20
2019-01-21T06:58:45.111Z,76.00
2019-01-21T07:03:01.105Z,74.90
2019-01-21T07:07:19.951Z,67.10
2019-01-21T07:11:32.778Z,67.10
2019-01-21T07:15:51.422Z,61.10
2019-01-21T07:20:10.323Z,62.10
2019-01-21T07:24:38.187Z,69.50
2019-01-21T07:28:57.174Z,63.90
2019-01-21T07:33:19.955Z,71.70
2019-01-21T07:37:33.215Z,73.90
2019-01-21T07:41:46.043Z,70.50
2019-01-21T07:46:02.100Z,72.30
2019-01-21T07:50:17.841Z,76.50
2019-01-21T07:54:42.536Z,73.80
2019-01-21T07:59:31.407Z,76.20
2019-01-21T08:04:09.931Z,73.70
2019-01-21T08:08:22.870Z,71.10
2019-01-21T08:12:41.354Z,75.70
2019-01-21T08:17:00.374Z,72.90
2019-01-21T08:21:37.351Z,65.80
2019-01-21T08:26:08.353Z,66.10
2019-01-21T08:30:42.406Z,67.80
2019-01-21T08:34:58.392Z,69.00
2019-01-21T08:39:11.560Z,70.20
2019-01-21T08:43:44.086Z,78.30
2019-01-21T08:48:16.592Z,68.70
2019-01-21T08:52:38.374Z,71.90
2019-01-21T08:57:04.743Z,67.70
2019-01-21T09:01:38.819Z,55.40
2019-01-21T09:06:03.521Z,50.10
2019-01-21T09:10:31.324Z,51.90
2019-01-21T09:15:05.301Z,52.90
2019-01-21T09:19:15.566Z,50.50
2019-01-21T09:23:50.803Z,59.90
2019-01-21T09:28:34.113Z,61.00
2019-01-21T09:32:47.354Z,59.70
2019-01-21T09:37:16.983Z,68.90
2019-01-21T09:42:03.144Z,66.40
2019-01-21T09:46:18.995Z,61.00
2019-01-21T09:50:25.233Z,56.30
2019-01-21T09:54:31.009Z,52.30
2019-01-21T09:58:38.045Z,47.20
2019-01-21T10:07:44.546Z,52.50
2019-01-21T10:12:21.372Z,51.20
2019-01-21T10:16:31.642Z,49.80
2019-01-21T10:21:04.204Z,46.20
2019-01-21T10:25:20.192Z,46.80
2019-01-21T10:29:52.827Z,47.20
2019-01-21T10:34:21.031Z,52.40
2019-01-21T10:38:53.441Z,54.70
2019-01-21T10:43:09.357Z,50.80
2019-01-21T10:47:37.562Z,47.10
2019-01-21T10:52:02.776Z,44.20
2019-01-21T10:56:27.251Z,45.60
2019-01-21T11:00:55.402Z,50.10
2019-01-21T11:05:26.309Z,46.50
2019-01-21T11:09:55.862Z,48.00
2019-01-21T11:14:30.095Z,42.90
2019-01-21T11:18:46.116Z,48.40
2019-01-21T11:23:06.310Z,43.00
2019-01-21T11:27:22.741Z,40.30
2019-01-21T11:31:52.232Z,34.40
2019-01-21T11:36:24.704Z,33.00
2019-01-21T11:40:41.563Z,28.20
2019-01-21T11:44:54.551Z,29.10
2019-01-21T11:49:19.862Z,27.40
2019-01-21T11:53:49.300Z,28.30
2019-01-21T11:58:24.775Z,27.00
2019-01-21T12:02:46.796Z,25.60
2019-01-21T12:07:08.535Z,25.10
2019-01-21T12:11:18.835Z,25.40
2019-01-21T12:15:40.320Z,24.80
2019-01-21T12:20:01.711Z,24.60
2019-01-21T12:24:11.996Z,25.90
2019-01-21T12:28:50.687Z,24.80
2019-01-21T12:33:27.671Z,26.20
2019-01-21T12:37:43.582Z,26.30
2019-01-21T12:42:11.542Z,26.40
2019-01-21T12:46:32.894Z,27.00
2019-01-21T12:51:05.804Z,25.10
2019-01-21T12:55:30.811Z,27.70
2019-01-21T12:59:49.512Z,27.70
2019-01-21T13:04:05.312Z,26.30
2019-01-21T13:08:21.335Z,30.20
2019-01-21T13:13:13.668Z,34.70
2019-01-21T13:17:24.932Z,39.60
2019-01-21T13:22:00.322Z,37.40
2019-01-21T13:26:22.379Z,42.70
2019-01-21T13:30:44.221Z,41.20
2019-01-21T13:35:25.762Z,42.90
2019-01-21T13:39:44.015Z,39.60
2019-01-21T13:44:33.023Z,43.20
2019-01-21T13:48:55.276Z,42.30
2019-01-21T13:53:50.520Z,46.40
2019-01-21T13:58:18.593Z,42.50
2019-01-21T14:02:28.869Z,44.90
2019-01-21T14:06:44.854Z,44.80
2019-01-21T14:11:06.621Z,47.20
2019-01-21T14:15:28.769Z,43.00
2019-01-21T14:19:48.007Z,43.00
2019-01-21T14:24:18.780Z,49.10
2019-01-21T14:28:58.868Z,48.30
2019-01-21T14:33:32.869Z,46.40
2019-01-21T14:38:02.926Z,46.60
2019-01-21T14:42:43.179Z,50.20
2019-01-21T14:47:19.947Z,49.90
2019-01-21T14:52:01.407Z,47.60
2019-01-21T14:56:16.902Z,53.60
2019-01-21T15:00:50.844Z,48.00
2019-01-21T15:05:29.428Z,50.20
2019-01-21T15:09:58.951Z,51.80
2019-01-21T15:14:38.986Z,55.10
2019-01-21T15:19:13.157Z,52.50
2019-01-21T15:23:34.652Z,54.00
2019-01-21T15:28:21.087Z,58.20
2019-01-21T15:32:42.947Z,66.20
2019-01-21T15:37:10.633Z,55.20
2019-01-21T15:41:55.267Z,64.80
2019-01-21T15:46:27.920Z,63.40
2019-01-21T15:50:40.936Z,59.80
2019-01-21T15:55:11.383Z,54.50
2019-01-21T15:59:30.506Z,57.00
2019-01-21T16:03:49.362Z,57.10
2019-01-21T16:07:59.640Z,55.90
2019-01-21T16:12:15.617Z,61.70
2019-01-21T16:16:48.126Z,55.30
2019-01-21T16:21:12.638Z,59.00
2019-01-21T16:25:21.412Z,58.60
2019-01-21T16:29:53.674Z,66.60
2019-01-21T16:34:27.931Z,67.80
2019-01-21T16:38:33.988Z,64.10
2019-01-21T16:42:39.709Z,62.10
2019-01-21T16:46:45.414Z,65.70
2019-01-21T16:50:51.104Z,67.00
2019-01-21T16:54:56.808Z,54.60
2019-01-21T16:59:02.573Z,59.90
2019-01-21T17:03:08.271Z,67.50
2019-01-21T17:07:14.004Z,66.00
2019-01-21T17:11:19.713Z,67.30
2019-01-21T17:15:25.490Z,58.30
2019-01-21T17:19:31.203Z,66.40
2019-01-21T17:23:37.079Z,62.10
2019-01-21T17:27:43.002Z,57.20
2019-01-21T17:31:48.714Z,58.10
2019-01-21T17:35:54.421Z,59.70
2019-01-21T17:40:04.653Z,56.40
2019-01-21T17:44:10.420Z,57.30
2019-01-21T17:48:16.116Z,60.70
2019-01-21T17:52:21.854Z,56.60
2019-01-21T17:56:27.688Z,62.10
2019-01-21T18:00:34.255Z,57.30
2019-01-21T18:04:39.933Z,68.20
2019-01-21T18:08:45.762Z,60.80
2019-01-21T18:12:51.598Z,66.80
2019-01-21T18:16:57.337Z,59.00
2019-01-21T18:21:04.109Z,50.90
2019-01-21T18:25:11.526Z,61.00
2019-01-21T18:29:17.300Z,60.00
2019-01-21T18:33:23.121Z,59.70
2019-01-21T18:37:29.128Z,66.90
2019-01-21T18:41:35.015Z,66.10
2019-01-21T18:45:40.946Z,59.90
2019-01-21T18:49:46.670Z,61.90
2019-01-21T18:53:52.390Z,57.10
2019-01-21T18:57:58.203Z,63.60
2019-01-21T19:02:03.960Z,66.30
2019-01-21T19:06:10.758Z,62.60
2019-01-21T19:10:18.968Z,59.60
2019-01-21T19:14:25.712Z,63.60
2019-01-21T19:18:31.467Z,71.90
2019-01-21T19:22:37.200Z,65.90
2019-01-21T19:26:43.967Z,63.80
2019-01-21T19:30:49.729Z,69.80
2019-01-21T19:34:55.413Z,67.70
2019-01-21T19:39:01.232Z,62.80
2019-01-21T19:43:07.192Z,65.50
2019-01-21T19:47:13.079Z,65.60
2019-01-21T19:51:18.860Z,60.30
2019-01-21T19:55:35.224Z,57.80
2019-01-21T19:59:40.916Z,59.70
2019-01-21T20:03:46.680Z,68.40
2019-01-21T20:07:52.534Z,66.50
2019-01-21T20:11:58.300Z,63.00
2019-01-21T20:16:04.396Z,60.40
2019-01-21T20:20:17.682Z,68.30
2019-01-21T20:24:23.531Z,64.80
2019-01-21T20:28:29.295Z,64.40
2019-01-21T20:32:35.231Z,70.90
2019-01-21T20:36:40.994Z,68.70
2019-01-21T20:40:46.717Z,69.90
2019-01-21T20:44:53.532Z,71.00
2019-01-21T20:48:59.249Z,68.70
2019-01-21T20:53:05.587Z,57.90
2019-01-21T20:57:11.272Z,64.70
2019-01-21T21:01:17.062Z,72.00
2019-01-21T21:05:23.067Z,65.80
2019-01-21T21:09:29.853Z,59.50
2019-01-21T21:13:36.663Z,71.40
2019-01-21T21:17:42.356Z,61.00
2019-01-21T21:21:48.070Z,74.10
2019-01-21T21:26:17.968Z,64.80
2019-01-21T21:30:27.835Z,65.50
2019-01-21T21:34:33.518Z,69.40
2019-01-21T21:38:39.202Z,64.40
2019-01-21T21:42:45.272Z,65.10
2019-01-21T21:46:51.030Z,72.70
2019-01-21T21:50:56.767Z,76.00
2019-01-21T21:55:02.455Z,72.50
2019-01-21T21:59:08.133Z,70.30
2019-01-21T22:03:13.890Z,63.20
2019-01-21T22:07:19.582Z,72.60
2019-01-21T22:11:25.295Z,65.00
2019-01-21T22:15:30.989Z,73.50
2019-01-21T22:19:36.677Z,71.00
2019-01-21T22:23:42.445Z,71.90
2019-01-21T22:27:48.224Z,65.90
2019-01-21T22:31:53.993Z,70.80
2019-01-21T22:35:59.954Z,71.80
2019-01-21T22:40:11.899Z,71.70
2019-01-21T22:44:17.606Z,73.80
2019-01-21T22:48:23.293Z,71.90
2019-01-21T22:52:28.994Z,65.50
2019-01-21T22:56:34.705Z,73.40
2019-01-21T23:00:54.519Z,65.70
2019-01-21T23:05:00.275Z,70.80
2019-01-21T23:09:21.224Z,67.90
2019-01-21T23:13:26.917Z,73.10
2019-01-21T23:17:32.605Z,71.10
2019-01-21T23:21:38.560Z,75.40
2019-01-21T23:26:17.236Z,72.10
2019-01-21T23:30:24.726Z,69.60
2019-01-21T23:34:30.416Z,68.90
2019-01-21T23:38:36.146Z,73.30
2019-01-21T23:42:41.904Z,70.80
2019-01-21T23:46:47.591Z,64.00
2019-01-21T23:50:53.633Z,68.30
2019-01-21T23:54:59.336Z,72.10
2019-01-21T23:59:05.252Z,76.30
